Archival Weather

Centro Met. Antartico Pdte. E

Centro Met. Antartico Pdte. E, Antarctica (SCRM)

Report from: Thursday, September 21, 2023 2:00 PM UTC
Current time: Friday, February 23, 2024 7:51 PM UTC

Current weather – Weather history – Daily summaries
Weather forecast

Present weatherDrifting snow
Temperature-7.0°C (19.4°F)
Wind chill-17.0°C (1.4°F)
Dew point-11.0°C (12.2°F)
Winds 23 kts (11.8 m/s, 26.5 mph) West-Southwest (250°)
Wind gusts 33 kts (17 m/s, 38 mph)
Visibility6.2 mi. (10 km)
Clouds Scattered clouds 2,000 ft. (610 m)
Ceiling: Overcast 2,500 ft. (762 m)
Altimeter29.21 in.Hg (989 mB)
Relative humidity73 %
Density altitude-1,846 ft. (-563 m)
Remarks No significant changes expected in the next two hours
Flight conditions Marginal Visual Meteorological Conditions
Raw dataSCRM 211400Z 25023G33KT 9999 DRSN SCT020 OVC025 M07/M11 Q0989 NOSIG
An error has occurred. This application may no longer respond until reloaded. Reload 🗙